Time;durP1;ratioP1;P1;durP2;ratioP2;P2;SDS_P1;SDS_P2;PMS_P1;PMS_P2;Temp;Humidity;BMP_temperature;BMP_pressure;BME280_temperature;BME280_humidity;BME280_pressure;Samples;Min_cycle;Max_cycle;Signal;HPM_P1;HPM_P2
2022/03/17 00:01:39;;;;;;;90.37;47.17;;;5.90;99.90;;;;;;5071690;28;20224;-83
2022/03/17 00:43:42;;;;;;;82.30;43.63;;;5.50;99.90;;;;;;5071434;27;20299;-68
2022/03/17 00:46:31;;;;;;;78.03;44.37;;;5.40;99.90;;;;;;5077141;28;20225;-70
2022/03/17 00:49:20;;;;;;;85.13;44.77;;;5.30;99.90;;;;;;5070062;28;20308;-71
2022/03/17 00:52:11;;;;;;;85.60;44.23;;;5.30;99.90;;;;;;5075046;28;20238;-70
2022/03/17 00:55:00;;;;;;;81.23;45.97;;;5.20;99.90;;;;;;5076732;28;20237;-69
2022/03/17 00:57:50;;;;;;;83.50;45.80;;;5.20;99.90;;;;;;5072277;28;20226;-69
2022/03/17 01:00:41;;;;;;;88.97;45.93;;;5.30;99.90;;;;;;5076000;28;20226;-68
2022/03/17 01:03:30;;;;;;;84.30;45.43;;;5.20;99.90;;;;;;5072364;28;20235;-69
2022/03/17 01:06:19;;;;;;;86.63;44.47;;;5.20;99.90;;;;;;5075885;28;20238;-68
2022/03/17 01:09:08;;;;;;;80.53;45.13;;;5.20;99.90;;;;;;5069998;28;20586;-69
2022/03/17 01:11:57;;;;;;;82.30;45.60;;;5.20;99.90;;;;;;5074214;28;20215;-69
2022/03/17 01:14:47;;;;;;;78.13;45.47;;;5.20;99.90;;;;;;5072357;28;20623;-69
2022/03/17 01:17:37;;;;;;;79.73;43.87;;;5.30;99.90;;;;;;5076403;28;20251;-68
2022/03/17 01:20:26;;;;;;;73.97;42.77;;;5.40;99.90;;;;;;5070999;28;20230;-68
2022/03/17 01:23:15;;;;;;;76.30;44.57;;;5.40;99.90;;;;;;5072556;28;20830;-69
2022/03/17 01:26:04;;;;;;;75.60;43.20;;;5.40;99.90;;;;;;5075904;28;20223;-68
2022/03/17 01:28:53;;;;;;;77.20;44.07;;;5.30;99.90;;;;;;5072278;28;20243;-69
2022/03/17 01:31:42;;;;;;;78.27;45.33;;;5.30;99.90;;;;;;5062869;28;20231;-69
2022/03/17 01:34:32;;;;;;;75.97;44.33;;;5.30;99.90;;;;;;5068756;28;20238;-71
2022/03/17 01:37:20;;;;;;;83.10;44.37;;;5.20;99.90;;;;;;5074594;28;20228;-69
2022/03/17 01:40:10;;;;;;;78.80;42.77;;;5.20;99.90;;;;;;5094065;28;20229;-69
2022/03/17 01:43:00;;;;;;;81.67;43.87;;;5.20;99.90;;;;;;5078258;28;20227;-69
2022/03/17 01:45:49;;;;;;;78.97;44.67;;;5.20;99.90;;;;;;5092562;28;20223;-68
2022/03/17 01:48:37;;;;;;;75.47;43.73;;;5.10;99.90;;;;;;5094020;28;20214;-69
2022/03/17 01:51:27;;;;;;;76.63;45.83;;;5.10;99.90;;;;;;5076654;28;20222;-71
2022/03/17 01:54:19;;;;;;;75.60;43.90;;;5.00;99.90;;;;;;5084995;28;20223;-70
2022/03/17 01:57:25;;;;;;;76.53;43.60;;;5.10;99.90;;;;;;5065470;28;20219;-69
2022/03/17 02:00:17;;;;;;;84.10;44.77;;;5.10;99.90;;;;;;5064166;28;20242;-69
2022/03/17 02:03:06;;;;;;;79.07;44.50;;;5.00;99.90;;;;;;5049040;28;20223;-68
2022/03/17 02:05:55;;;;;;;75.87;44.27;;;5.10;99.90;;;;;;5061470;28;20229;-69
2022/03/17 02:08:45;;;;;;;77.90;44.03;;;5.10;99.90;;;;;;5048685;28;20555;-69
2022/03/17 02:14:48;;;;;;;80.07;43.70;;;4.90;99.90;;;;;;5051744;28;20536;-71
2022/03/17 02:17:41;;;;;;;77.07;44.10;;;5.00;99.90;;;;;;5081425;28;20238;-69
2022/03/17 02:20:32;;;;;;;71.77;42.40;;;4.90;99.90;;;;;;5077987;28;20223;-69
2022/03/17 02:26:31;;;;;;;71.00;41.80;;;4.80;99.90;;;;;;5063694;28;20323;-69
2022/03/17 02:29:20;;;;;;;72.07;41.67;;;4.70;99.90;;;;;;5065470;28;20230;-69
2022/03/17 02:32:09;;;;;;;69.90;39.87;;;4.80;99.90;;;;;;5078256;28;20957;-68
2022/03/17 02:34:58;;;;;;;71.37;41.57;;;4.60;99.90;;;;;;5044323;28;20250;-68
2022/03/17 02:37:47;;;;;;;71.23;41.10;;;4.50;99.90;;;;;;5066815;28;20230;-66
2022/03/17 02:40:38;;;;;;;77.23;41.67;;;4.50;99.90;;;;;;5080894;28;20223;-66
2022/03/17 02:43:27;;;;;;;70.10;37.23;;;4.50;99.90;;;;;;5076194;28;20224;-66
2022/03/17 02:46:16;;;;;;;63.40;36.40;;;4.60;99.90;;;;;;5075744;28;20225;-65
2022/03/17 02:49:05;;;;;;;68.40;38.53;;;4.60;99.90;;;;;;5071260;28;20233;-65
2022/03/17 02:51:54;;;;;;;72.10;39.17;;;4.40;99.90;;;;;;5081069;28;20218;-66
2022/03/17 02:54:43;;;;;;;65.10;38.17;;;4.30;99.90;;;;;;5066147;28;20236;-66
2022/03/17 02:57:33;;;;;;;64.27;37.30;;;4.20;99.90;;;;;;5081946;28;20343;-65
2022/03/17 03:00:21;;;;;;;63.27;38.07;;;4.30;99.90;;;;;;5071746;28;20221;-65
2022/03/17 03:03:10;;;;;;;66.97;36.57;;;4.30;99.90;;;;;;5071819;28;20227;-65
2022/03/17 03:06:00;;;;;;;63.07;38.27;;;4.40;99.90;;;;;;5062888;28;20732;-66
2022/03/17 03:08:52;;;;;;;66.97;37.43;;;4.40;99.90;;;;;;5065186;28;20249;-67
2022/03/17 03:11:40;;;;;;;65.97;37.37;;;4.30;99.90;;;;;;5047122;28;20250;-66
2022/03/17 03:14:31;;;;;;;65.27;37.33;;;4.30;99.90;;;;;;5058668;28;20575;-66
2022/03/17 03:17:20;;;;;;;65.83;37.17;;;4.20;99.90;;;;;;5065338;28;20249;-65
2022/03/17 03:20:11;;;;;;;63.50;36.63;;;4.10;99.90;;;;;;5078558;28;20725;-65
2022/03/17 03:23:00;;;;;;;68.67;38.10;;;4.30;99.90;;;;;;5079998;28;20228;-65
2022/03/17 03:25:52;;;;;;;67.40;37.37;;;4.20;99.90;;;;;;5063977;28;20218;-65
2022/03/17 03:28:44;;;;;;;66.87;38.70;;;4.00;99.90;;;;;;5070297;28;20227;-67
2022/03/17 03:31:35;;;;;;;67.90;38.17;;;4.00;99.90;;;;;;5077690;28;20332;-67
2022/03/17 03:34:25;;;;;;;67.03;37.17;;;4.10;99.90;;;;;;5080835;28;20221;-66
2022/03/17 03:40:19;;;;;;;59.73;35.37;;;3.90;99.90;;;;;;5078879;28;20226;-66
2022/03/17 03:43:08;;;;;;;61.80;35.33;;;3.90;99.90;;;;;;5064166;28;20232;-66
2022/03/17 03:45:56;;;;;;;60.13;34.47;;;3.90;99.90;;;;;;5063715;28;20232;-67
2022/03/17 03:48:46;;;;;;;63.43;35.00;;;3.90;99.90;;;;;;5075207;28;20229;-67
2022/03/17 03:51:36;;;;;;;59.17;34.60;;;3.80;99.90;;;;;;5044398;28;20278;-67
2022/03/17 03:54:28;;;;;;;59.23;32.83;;;3.90;99.90;;;;;;5057167;28;20223;-66
2022/03/17 03:57:16;;;;;;;60.77;32.20;;;3.70;99.90;;;;;;5057182;28;20906;-66
2022/03/17 04:00:12;;;;;;;63.33;32.13;;;3.50;99.90;;;;;;5043850;28;20241;-66
2022/03/17 04:03:03;;;;;;;56.60;34.07;;;3.40;99.90;;;;;;5040035;28;20232;-67
2022/03/17 04:05:56;;;;;;;59.40;32.90;;;3.30;99.90;;;;;;5055856;28;20250;-67
2022/03/17 04:08:49;;;;;;;60.07;32.77;;;3.40;99.90;;;;;;5040509;28;20804;-67
2022/03/17 04:11:38;;;;;;;63.47;33.23;;;3.30;99.90;;;;;;5070142;28;20699;-67
2022/03/17 04:14:26;;;;;;;61.90;34.53;;;3.30;99.90;;;;;;5060715;28;20231;-67
2022/03/17 04:17:15;;;;;;;56.80;32.07;;;3.20;99.90;;;;;;5075605;28;20274;-67
2022/03/17 04:20:06;;;;;;;59.33;32.87;;;3.20;99.90;;;;;;5079794;28;20227;-67
2022/03/17 04:22:56;;;;;;;54.70;32.47;;;3.20;99.90;;;;;;5080691;28;20240;-67
2022/03/17 04:25:44;;;;;;;56.27;32.67;;;3.20;99.90;;;;;;5058037;28;20221;-67
2022/03/17 04:28:33;;;;;;;60.90;33.13;;;3.20;99.90;;;;;;5076738;28;20225;-67
2022/03/17 04:31:22;;;;;;;58.43;33.63;;;3.20;99.90;;;;;;5076823;28;20228;-68
2022/03/17 04:34:11;;;;;;;59.50;34.17;;;3.20;99.90;;;;;;5070682;28;20220;-67
2022/03/17 04:37:00;;;;;;;58.07;33.07;;;3.30;99.90;;;;;;5079975;28;20773;-67
2022/03/17 04:39:54;;;;;;;57.87;33.37;;;3.30;99.90;;;;;;5076224;28;20748;-66
2022/03/17 04:42:42;;;;;;;62.77;34.60;;;3.20;99.90;;;;;;5076966;28;20385;-67
2022/03/17 04:45:31;;;;;;;66.70;36.07;;;3.20;99.90;;;;;;5075229;28;20224;-67
2022/03/17 04:48:19;;;;;;;59.70;33.73;;;3.20;99.90;;;;;;5077906;28;20227;-66
2022/03/17 04:51:08;;;;;;;64.43;35.00;;;3.30;99.90;;;;;;5058768;28;20224;-66
2022/03/17 04:54:01;;;;;;;61.73;34.57;;;3.30;99.90;;;;;;5056844;28;20382;-67
2022/03/17 04:56:50;;;;;;;56.20;32.80;;;3.30;99.90;;;;;;5057262;28;20217;-68
2022/03/17 04:59:39;;;;;;;60.67;33.37;;;3.20;99.90;;;;;;5059576;28;20714;-68
2022/03/17 05:02:28;;;;;;;58.17;32.83;;;3.00;99.90;;;;;;5072862;28;20238;-67
2022/03/17 05:05:17;;;;;;;61.17;34.80;;;2.90;99.90;;;;;;5077571;28;20632;-67
2022/03/17 05:08:06;;;;;;;66.17;36.97;;;2.90;99.90;;;;;;5051342;28;20288;-67
2022/03/17 05:10:55;;;;;;;66.40;35.33;;;3.00;99.90;;;;;;5067172;28;20626;-66
2022/03/17 05:14:13;;;;;;;66.13;35.67;;;3.00;99.90;;;;;;5065354;28;20233;-65
2022/03/17 05:17:03;;;;;;;62.53;35.13;;;3.10;99.90;;;;;;5063820;28;20670;-66
2022/03/17 05:19:51;;;;;;;65.37;36.30;;;3.10;99.90;;;;;;5079032;28;20341;-66
2022/03/17 05:22:40;;;;;;;63.13;34.93;;;3.10;99.90;;;;;;5079924;28;20228;-65
2022/03/17 05:25:30;;;;;;;59.87;34.80;;;3.00;99.90;;;;;;5073691;28;20219;-65
2022/03/17 05:28:19;;;;;;;67.23;35.37;;;2.90;99.90;;;;;;5075563;28;20250;-65
2022/03/17 05:31:09;;;;;;;66.30;35.90;;;2.80;99.90;;;;;;5065647;28;20235;-66
2022/03/17 05:33:57;;;;;;;57.87;34.17;;;2.80;99.90;;;;;;5064358;28;20232;-69
2022/03/17 05:36:46;;;;;;;62.33;34.73;;;3.00;99.90;;;;;;5081046;28;20220;-70
2022/03/17 05:39:34;;;;;;;68.23;36.27;;;3.10;99.90;;;;;;5064725;28;20250;-69
2022/03/17 05:42:23;;;;;;;61.07;34.17;;;2.90;99.90;;;;;;5061546;28;20224;-69
2022/03/17 05:45:12;;;;;;;67.70;35.27;;;2.80;99.90;;;;;;5080611;28;20243;-69
2022/03/17 05:48:04;;;;;;;62.57;35.60;;;2.90;99.90;;;;;;5067091;28;20581;-69
2022/03/17 05:50:53;;;;;;;60.07;34.43;;;3.00;99.90;;;;;;5061404;28;20219;-68
2022/03/17 05:53:42;;;;;;;63.53;34.93;;;3.00;99.90;;;;;;5079847;28;20235;-68
2022/03/17 05:56:32;;;;;;;68.20;35.03;;;3.20;99.90;;;;;;5062246;28;20231;-68
2022/03/17 05:59:21;;;;;;;60.93;34.77;;;3.30;99.90;;;;;;5082253;28;20232;-69
2022/03/17 06:02:10;;;;;;;61.63;34.70;;;3.20;99.90;;;;;;5065369;28;20232;-66
2022/03/17 06:05:08;;;;;;;61.77;33.63;;;3.30;99.90;;;;;;5067102;28;20651;-68
2022/03/17 06:08:00;;;;;;;66.07;34.37;;;3.20;99.90;;;;;;5080173;28;20221;-68
2022/03/17 06:10:49;;;;;;;60.80;35.23;;;3.20;99.90;;;;;;5079026;28;20222;-67
2022/03/17 06:13:37;;;;;;;65.17;34.00;;;3.30;99.90;;;;;;5080272;28;20227;-68
2022/03/17 06:16:26;;;;;;;64.57;34.37;;;3.40;99.90;;;;;;5068420;28;20717;-68
2022/03/17 06:19:15;;;;;;;68.73;35.53;;;3.50;99.90;;;;;;5065208;28;20227;-67
2022/03/17 06:22:05;;;;;;;62.17;35.13;;;3.50;99.90;;;;;;5066074;28;20243;-67
2022/03/17 06:24:54;;;;;;;66.33;36.07;;;3.60;99.90;;;;;;5080313;28;20353;-67
2022/03/17 06:27:43;;;;;;;66.33;35.80;;;3.60;99.90;;;;;;5060606;28;21976;-66
2022/03/17 06:30:35;;;;;;;63.33;36.23;;;3.70;99.90;;;;;;5079866;28;20321;-66
2022/03/17 06:33:24;;;;;;;64.47;37.33;;;3.90;99.90;;;;;;5064647;28;20320;-66
2022/03/17 06:36:14;;;;;;;62.63;35.27;;;3.80;99.90;;;;;;5078877;28;20233;-66
2022/03/17 06:39:04;;;;;;;60.10;36.10;;;4.00;99.90;;;;;;5074428;28;20248;-65
2022/03/17 06:41:52;;;;;;;61.63;35.07;;;4.10;99.90;;;;;;5078284;28;20255;-65
2022/03/17 06:44:41;;;;;;;64.30;36.47;;;4.20;99.90;;;;;;5079280;28;20226;-66
2022/03/17 06:47:30;;;;;;;64.23;35.60;;;4.20;99.90;;;;;;5063058;28;21089;-65
2022/03/17 06:50:21;;;;;;;67.57;36.30;;;4.30;99.90;;;;;;5064641;28;20230;-64
2022/03/17 06:53:10;;;;;;;63.37;36.23;;;4.40;99.90;;;;;;5080890;28;20592;-65
2022/03/17 06:56:00;;;;;;;68.17;35.90;;;4.50;99.90;;;;;;5063845;28;20329;-65
2022/03/17 06:58:52;;;;;;;64.93;34.73;;;4.70;99.90;;;;;;5080618;28;20233;-68
2022/03/17 07:01:40;;;;;;;64.20;35.70;;;4.70;99.90;;;;;;5080073;28;20235;-69
2022/03/17 07:04:29;;;;;;;57.13;33.60;;;4.80;99.90;;;;;;5077932;28;20356;-67
2022/03/17 07:07:21;;;;;;;69.97;35.67;;;4.70;99.90;;;;;;5077683;28;20258;-67
2022/03/17 07:10:15;;;;;;;66.47;37.17;;;4.60;99.90;;;;;;5064327;28;20237;-67
2022/03/17 07:13:06;;;;;;;66.70;36.33;;;4.80;99.90;;;;;;5046001;28;20303;-68
2022/03/17 07:15:55;;;;;;;60.27;34.33;;;4.90;99.90;;;;;;5082686;28;20233;-68
2022/03/17 07:18:44;;;;;;;64.40;36.13;;;5.00;99.90;;;;;;5079045;28;20227;-69
2022/03/17 07:21:34;;;;;;;63.97;35.93;;;5.10;99.90;;;;;;5066218;28;20319;-68
2022/03/17 07:24:22;;;;;;;61.50;35.60;;;5.10;99.90;;;;;;5062555;28;20238;-66
2022/03/17 07:27:13;;;;;;;67.27;33.97;;;5.20;99.90;;;;;;5060746;28;20225;-64
2022/03/17 07:30:06;;;;;;;60.17;35.37;;;5.20;99.90;;;;;;5061796;28;20227;-64
2022/03/17 07:32:59;;;;;;;58.83;33.07;;;5.20;99.90;;;;;;5062399;28;20250;-65
2022/03/17 07:35:48;;;;;;;60.80;35.10;;;5.30;99.90;;;;;;5063511;28;20635;-69
2022/03/17 07:38:37;;;;;;;58.90;35.50;;;5.40;99.90;;;;;;5060626;28;20223;-66
2022/03/17 07:41:26;;;;;;;58.07;34.73;;;5.50;99.90;;;;;;5062758;28;20638;-70
2022/03/17 07:44:14;;;;;;;61.50;33.60;;;5.50;99.90;;;;;;5078232;28;20327;-73
2022/03/17 07:47:23;;;;;;;62.10;35.33;;;5.70;99.90;;;;;;5064694;28;20223;-70
2022/03/17 07:50:12;;;;;;;62.50;35.37;;;5.70;99.90;;;;;;5055429;28;20251;-69
2022/03/17 07:53:02;;;;;;;68.43;34.87;;;5.80;99.90;;;;;;5044763;28;20338;-71
2022/03/17 07:55:55;;;;;;;60.50;35.90;;;5.80;99.90;;;;;;5072514;28;20593;-71
2022/03/17 07:58:44;;;;;;;68.27;36.43;;;6.10;99.90;;;;;;5061488;28;20316;-71
2022/03/17 08:01:34;;;;;;;64.70;36.03;;;6.20;99.90;;;;;;5077309;28;20742;-71
2022/03/17 08:04:24;;;;;;;58.97;34.23;;;6.50;99.90;;;;;;5081179;28;20220;-71
2022/03/17 08:07:18;;;;;;;60.40;35.53;;;8.60;99.90;;;;;;5063476;28;20235;-71
2022/03/17 08:10:13;;;;;;;51.53;33.70;;;11.80;90.70;;;;;;5055414;28;20229;-71
2022/03/17 08:13:08;;;;;;;59.83;32.83;;;13.30;80.70;;;;;;5073234;28;20358;-71
2022/03/17 08:15:56;;;;;;;51.70;30.45;;;14.50;74.50;;;;;;5075890;28;20648;-71
2022/03/17 08:18:45;;;;;;;52.45;30.98;;;14.90;70.40;;;;;;5075799;28;20405;-71
2022/03/17 08:21:35;;;;;;;53.65;30.48;;;15.60;68.90;;;;;;5050165;28;20220;-71
2022/03/17 08:24:24;;;;;;;48.17;29.83;;;15.90;66.80;;;;;;5074105;28;20315;-72
2022/03/17 08:27:13;;;;;;;49.25;30.73;;;15.60;65.90;;;;;;5064313;28;20585;-68
2022/03/17 08:30:05;;;;;;;47.72;32.75;;;15.40;66.00;;;;;;5064165;28;20220;-67
2022/03/17 08:32:53;;;;;;;46.15;30.42;;;16.00;66.40;;;;;;5061112;28;20226;-67
2022/03/17 08:35:43;;;;;;;47.30;29.38;;;16.50;64.50;;;;;;5078327;28;20226;-67
2022/03/17 08:38:33;;;;;;;50.65;31.08;;;16.80;63.10;;;;;;5074089;28;20398;-68
2022/03/17 08:41:22;;;;;;;49.30;30.50;;;16.40;63.00;;;;;;5063070;28;20254;-68
2022/03/17 08:44:12;;;;;;;46.95;30.10;;;16.60;63.00;;;;;;5062253;28;20307;-69
2022/03/17 08:50:09;;;;;;;48.03;30.10;;;16.70;62.40;;;;;;5074824;28;20223;-68
2022/03/17 08:52:59;;;;;;;45.60;28.15;;;17.80;60.00;;;;;;5072654;28;20212;-68
2022/03/17 08:55:49;;;;;;;46.75;30.15;;;18.20;58.80;;;;;;5058926;28;20208;-69
2022/03/17 08:58:38;;;;;;;45.85;30.20;;;18.60;58.40;;;;;;5077153;28;20219;-69
2022/03/17 09:01:26;;;;;;;45.33;27.27;;;19.30;55.80;;;;;;5076996;28;20397;-69
2022/03/17 09:04:15;;;;;;;42.88;28.48;;;18.30;55.40;;;;;;5073587;28;20277;-68
2022/03/17 09:07:05;;;;;;;41.40;27.33;;;19.00;56.70;;;;;;5082097;28;20275;-68
2022/03/17 09:09:54;;;;;;;46.78;27.88;;;17.10;57.50;;;;;;5079461;28;20227;-69
2022/03/17 09:12:44;;;;;;;43.95;26.83;;;18.70;56.30;;;;;;5065225;28;20327;-68
2022/03/17 09:15:33;;;;;;;39.67;28.95;;;17.70;57.30;;;;;;5078586;28;20246;-69
2022/03/17 09:18:22;;;;;;;44.88;27.33;;;17.30;58.50;;;;;;5069214;28;20230;-69
2022/03/17 09:21:11;;;;;;;37.55;25.20;;;14.80;60.00;;;;;;5081393;28;20223;-69
2022/03/17 09:24:00;;;;;;;45.90;28.33;;;13.20;63.30;;;;;;5065861;28;20728;-70
2022/03/17 09:26:49;;;;;;;47.38;28.05;;;11.80;68.20;;;;;;5068106;28;20231;-68
2022/03/17 09:29:43;;;;;;;42.47;26.50;;;10.90;72.10;;;;;;5080247;28;20223;-69
2022/03/17 09:32:32;;;;;;;40.67;25.15;;;11.10;72.80;;;;;;5080203;28;21021;-69
2022/03/17 09:35:24;;;;;;;40.42;26.10;;;10.70;73.70;;;;;;5053191;28;20239;-69
2022/03/17 09:38:13;;;;;;;47.00;26.67;;;10.70;74.00;;;;;;5063437;28;20231;-69
2022/03/17 09:41:23;;;;;;;45.05;27.20;;;10.40;75.20;;;;;;5077232;28;20323;-69
2022/03/17 09:44:11;;;;;;;38.25;23.88;;;10.50;76.20;;;;;;5077786;28;20220;-68
2022/03/17 09:47:09;;;;;;;45.25;27.23;;;10.50;75.50;;;;;;5061532;28;20227;-69
2022/03/17 09:49:58;;;;;;;45.35;27.33;;;10.40;76.70;;;;;;5069905;28;20269;-68
2022/03/17 09:52:47;;;;;;;39.75;24.40;;;10.40;76.80;;;;;;5080495;28;20223;-68
2022/03/17 09:55:36;;;;;;;41.22;25.63;;;10.40;76.10;;;;;;5067293;28;20320;-69
2022/03/17 09:58:25;;;;;;;41.63;24.70;;;10.40;76.30;;;;;;5061663;28;20215;-68
2022/03/17 10:01:15;;;;;;;38.33;23.73;;;10.30;76.90;;;;;;5081310;28;20233;-68
2022/03/17 10:04:07;;;;;;;40.63;25.13;;;10.40;76.30;;;;;;5066459;28;20236;-68
2022/03/17 10:06:56;;;;;;;37.65;23.88;;;10.40;76.10;;;;;;5079139;28;20230;-68
2022/03/17 10:09:45;;;;;;;37.13;24.00;;;10.40;75.30;;;;;;5083098;28;20222;-68
2022/03/17 10:12:34;;;;;;;37.63;23.40;;;10.50;75.70;;;;;;5078924;28;20396;-68
2022/03/17 10:15:23;;;;;;;42.40;25.93;;;10.40;77.00;;;;;;5065904;28;20317;-68
2022/03/17 10:18:19;;;;;;;38.55;23.20;;;10.40;77.20;;;;;;5081386;28;20219;-68
2022/03/17 10:21:11;;;;;;;37.05;23.23;;;10.40;76.70;;;;;;5080699;28;20227;-68
2022/03/17 10:24:02;;;;;;;32.40;22.08;;;10.30;76.00;;;;;;5081873;28;20222;-68
2022/03/17 10:26:51;;;;;;;33.88;22.30;;;10.20;75.90;;;;;;5080267;28;20235;-69
2022/03/17 10:29:40;;;;;;;35.40;20.77;;;10.30;75.40;;;;;;5081377;28;20232;-68
2022/03/17 10:32:29;;;;;;;32.35;21.13;;;10.30;75.20;;;;;;5067104;28;20226;-69
2022/03/17 10:35:24;;;;;;;33.03;20.92;;;10.30;75.00;;;;;;5061006;28;20290;-69
2022/03/17 10:38:16;;;;;;;33.10;21.13;;;10.30;75.00;;;;;;5075016;28;20223;-68
2022/03/17 10:41:07;;;;;;;34.30;20.60;;;10.20;75.50;;;;;;5072491;28;20226;-69
2022/03/17 10:44:00;;;;;;;36.83;21.63;;;10.20;75.10;;;;;;5063772;28;20214;-67
2022/03/17 10:46:56;;;;;;;31.92;18.90;;;10.20;75.70;;;;;;5079181;28;20227;-68
2022/03/17 10:50:00;;;;;;;33.08;19.30;;;10.30;75.60;;;;;;5075485;28;20223;-69
2022/03/17 10:52:55;;;;;;;30.65;18.50;;;10.40;74.50;;;;;;5079725;28;20337;-69
2022/03/17 10:55:45;;;;;;;29.30;19.20;;;10.40;73.90;;;;;;5067043;28;20223;-70
2022/03/17 10:58:42;;;;;;;34.35;18.63;;;10.60;74.00;;;;;;5060892;28;20238;-64
2022/03/17 11:01:50;;;;;;;33.63;18.80;;;10.70;73.60;;;;;;5058552;28;20212;-70
2022/03/17 11:04:43;;;;;;;32.30;19.13;;;10.90;72.90;;;;;;5058908;28;20468;-68
2022/03/17 11:07:32;;;;;;;30.92;19.50;;;11.00;72.50;;;;;;5060707;28;20229;-69
2022/03/17 11:10:22;;;;;;;29.65;18.55;;;11.10;72.00;;;;;;5059649;28;20254;-69
2022/03/17 11:13:15;;;;;;;30.35;19.02;;;11.20;72.30;;;;;;5081879;28;20666;-69
2022/03/17 11:16:07;;;;;;;28.33;17.88;;;10.70;72.60;;;;;;5073898;28;20717;-69
2022/03/17 11:18:57;;;;;;;26.63;17.23;;;10.50;72.50;;;;;;5077164;28;20234;-69
2022/03/17 11:21:48;;;;;;;26.75;18.10;;;10.80;73.00;;;;;;5065426;28;20276;-71
2022/03/17 11:24:38;;;;;;;25.30;17.67;;;11.00;72.50;;;;;;5067788;28;20228;-71
2022/03/17 11:27:27;;;;;;;28.60;17.17;;;10.70;72.00;;;;;;5075704;28;20250;-71
2022/03/17 11:30:18;;;;;;;26.98;17.35;;;10.80;71.50;;;;;;5077611;28;20223;-71
2022/03/17 11:33:21;;;;;;;27.95;17.52;;;10.70;72.00;;;;;;5060329;28;20695;-71
2022/03/17 11:36:22;;;;;;;25.67;17.25;;;10.80;71.80;;;;;;5082243;28;20234;-72
2022/03/17 11:39:20;;;;;;;26.38;17.30;;;10.70;71.60;;;;;;5061531;28;20226;-71
2022/03/17 11:42:36;;;;;;;24.85;17.23;;;10.70;71.90;;;;;;5080980;28;20234;-70
2022/03/17 11:45:37;;;;;;;30.45;18.23;;;10.70;71.80;;;;;;5074515;28;20283;-71
2022/03/17 11:48:36;;;;;;;28.50;18.20;;;11.00;71.40;;;;;;5069962;28;20231;-71
2022/03/17 11:51:27;;;;;;;28.23;18.90;;;11.10;70.50;;;;;;5063607;28;20234;-73
2022/03/17 11:54:18;;;;;;;32.03;17.73;;;11.20;70.80;;;;;;5080433;28;20223;-69
2022/03/17 11:57:07;;;;;;;25.38;16.77;;;11.10;70.20;;;;;;5073589;28;20216;-70
2022/03/17 11:59:58;;;;;;;25.40;15.82;;;10.90;70.10;;;;;;5061925;28;20219;-71
2022/03/17 12:03:05;;;;;;;21.05;15.18;;;11.30;69.90;;;;;;5067864;28;20269;-71
2022/03/17 12:06:06;;;;;;;25.70;15.90;;;11.40;68.40;;;;;;5076796;28;20278;-69
2022/03/17 12:08:59;;;;;;;25.33;15.45;;;11.50;67.30;;;;;;5077360;28;20254;-68
2022/03/17 12:11:50;;;;;;;24.33;15.02;;;11.50;66.90;;;;;;5063906;28;20288;-69
2022/03/17 12:14:49;;;;;;;21.35;14.98;;;11.50;66.80;;;;;;5064556;28;20594;-70
2022/03/17 12:17:38;;;;;;;22.20;13.50;;;11.20;67.10;;;;;;5067590;28;20215;-69
2022/03/17 12:20:30;;;;;;;22.88;14.40;;;11.30;67.30;;;;;;5079133;28;20223;-69
2022/03/17 12:23:45;;;;;;;20.13;14.70;;;11.30;67.00;;;;;;5049089;28;20234;-69
2022/03/17 12:26:34;;;;;;;21.02;13.90;;;11.40;67.00;;;;;;5078686;28;20739;-68
2022/03/17 12:29:27;;;;;;;25.42;15.00;;;11.30;67.20;;;;;;5057603;28;20243;-69
2022/03/17 12:32:18;;;;;;;19.50;14.32;;;11.20;67.60;;;;;;5075613;28;20227;-69
2022/03/17 12:35:09;;;;;;;23.05;14.70;;;11.30;67.20;;;;;;5047154;28;20224;-68
2022/03/17 12:38:05;;;;;;;22.50;15.00;;;11.00;67.40;;;;;;5057417;28;20642;-68
2022/03/17 12:40:56;;;;;;;21.00;13.88;;;11.20;67.70;;;;;;5042622;28;20319;-69
2022/03/17 12:43:44;;;;;;;22.98;14.73;;;11.40;67.30;;;;;;5042887;28;20227;-68
2022/03/17 12:46:33;;;;;;;21.35;13.90;;;11.20;67.40;;;;;;5069630;28;20635;-68
2022/03/17 12:49:23;;;;;;;19.92;14.18;;;11.20;68.40;;;;;;5080416;28;20258;-68
2022/03/17 12:52:20;;;;;;;23.55;14.23;;;11.30;66.70;;;;;;5046020;28;20220;-68
2022/03/17 12:55:12;;;;;;;19.60;13.48;;;11.40;66.80;;;;;;5077884;28;20231;-69
2022/03/17 12:58:02;;;;;;;19.85;14.07;;;11.30;66.30;;;;;;5058045;28;20220;-70
2022/03/17 13:00:51;;;;;;;19.48;13.80;;;11.30;66.50;;;;;;5054663;28;20232;-68
2022/03/17 13:03:43;;;;;;;21.63;13.80;;;11.10;66.50;;;;;;5057331;28;20560;-68
2022/03/17 13:09:39;;;;;;;21.10;14.77;;;10.30;69.10;;;;;;5057068;28;20216;-68
2022/03/17 13:15:45;;;;;;;21.88;13.95;;;10.40;68.10;;;;;;5035088;28;20223;-69
2022/03/17 13:18:42;;;;;;;20.88;13.70;;;10.40;68.20;;;;;;5060104;28;20582;-68
2022/03/17 13:21:32;;;;;;;23.00;15.38;;;10.30;68.60;;;;;;5077071;28;20753;-68
2022/03/17 13:24:21;;;;;;;21.77;14.77;;;10.30;68.70;;;;;;5079450;28;21072;-68
2022/03/17 13:27:09;;;;;;;20.75;13.77;;;10.40;68.70;;;;;;5063415;28;20231;-68
2022/03/17 13:30:02;;;;;;;19.30;13.50;;;10.50;68.00;;;;;;5064985;28;20220;-68
2022/03/17 13:32:58;;;;;;;21.55;13.98;;;10.60;67.50;;;;;;5080644;28;20231;-69
2022/03/17 13:35:48;;;;;;;18.52;12.90;;;10.70;67.20;;;;;;5062510;28;20314;-68
2022/03/17 13:38:37;;;;;;;21.13;13.43;;;10.70;67.60;;;;;;5066856;28;20212;-68
2022/03/17 13:41:26;;;;;;;22.10;13.02;;;10.80;67.40;;;;;;5076090;28;20227;-68
2022/03/17 13:44:15;;;;;;;20.58;13.00;;;10.70;67.00;;;;;;5075515;28;20347;-69
2022/03/17 13:47:12;;;;;;;21.67;14.00;;;10.60;66.50;;;;;;5076672;28;20256;-69
2022/03/17 13:50:23;;;;;;;21.40;13.02;;;10.80;66.90;;;;;;5079409;28;20272;-68
2022/03/17 13:53:13;;;;;;;19.08;13.10;;;10.90;66.40;;;;;;5068685;28;20695;-68
2022/03/17 13:56:08;;;;;;;21.30;13.38;;;11.00;65.90;;;;;;5066883;28;20234;-69
2022/03/17 13:58:58;;;;;;;18.48;12.57;;;10.90;65.70;;;;;;5070337;28;20220;-68
2022/03/17 14:02:07;;;;;;;19.75;12.93;;;10.80;65.90;;;;;;5082989;28;20227;-68
2022/03/17 14:05:00;;;;;;;19.98;12.77;;;10.80;66.10;;;;;;5080206;28;20258;-68
2022/03/17 14:07:49;;;;;;;16.63;12.02;;;10.80;66.00;;;;;;5080462;28;20703;-69
2022/03/17 14:10:38;;;;;;;16.40;11.40;;;10.80;65.90;;;;;;5081905;28;20221;-68
2022/03/17 14:13:28;;;;;;;21.00;11.95;;;10.60;65.20;;;;;;5067009;28;20308;-69
2022/03/17 14:16:18;;;;;;;21.50;12.10;;;10.40;64.90;;;;;;5081398;28;20226;-70
2022/03/17 14:19:11;;;;;;;19.50;11.55;;;10.30;65.60;;;;;;5082265;28;20370;-69
2022/03/17 14:25:09;;;;;;;17.08;12.25;;;10.30;65.60;;;;;;5082894;28;20565;-69
2022/03/17 14:27:58;;;;;;;16.88;11.68;;;10.10;66.00;;;;;;5081558;28;20231;-69
2022/03/17 14:30:47;;;;;;;16.87;11.77;;;10.10;66.10;;;;;;5065696;28;20234;-69
2022/03/17 14:33:40;;;;;;;20.37;12.40;;;10.10;67.30;;;;;;5066454;28;20310;-69
2022/03/17 14:36:30;;;;;;;16.13;11.50;;;9.90;66.90;;;;;;5078732;28;20311;-69
2022/03/17 14:39:21;;;;;;;17.08;10.98;;;9.70;67.30;;;;;;5081310;28;20223;-69
2022/03/17 14:42:12;;;;;;;14.13;9.83;;;9.70;66.80;;;;;;5076192;28;20226;-69
2022/03/17 14:45:01;;;;;;;15.47;10.53;;;9.70;66.40;;;;;;5066049;28;20226;-69
2022/03/17 14:47:50;;;;;;;18.50;10.17;;;9.60;66.10;;;;;;5078589;28;20234;-69
2022/03/17 14:50:44;;;;;;;14.97;9.83;;;9.50;66.20;;;;;;5079239;28;20272;-69
2022/03/17 14:53:34;;;;;;;16.13;10.33;;;9.60;66.10;;;;;;5066947;28;20605;-68
2022/03/17 14:56:26;;;;;;;13.17;9.17;;;9.60;66.10;;;;;;5079831;28;20234;-70
2022/03/17 14:59:15;;;;;;;18.13;9.90;;;9.60;65.60;;;;;;5061046;28;20226;-68
2022/03/17 15:02:05;;;;;;;16.73;8.70;;;9.60;65.10;;;;;;5081581;28;20234;-69
2022/03/17 15:04:58;;;;;;;14.43;9.30;;;9.50;64.80;;;;;;5063278;28;20247;-68
2022/03/17 15:07:46;;;;;;;19.50;10.03;;;9.40;65.00;;;;;;5079186;28;20218;-68
2022/03/17 15:10:36;;;;;;;11.13;7.80;;;9.50;65.50;;;;;;5071802;28;20288;-69
2022/03/17 15:13:26;;;;;;;16.13;8.60;;;9.50;65.10;;;;;;5078722;28;20665;-69
2022/03/17 15:16:15;;;;;;;12.83;8.60;;;9.50;64.50;;;;;;5063554;28;20606;-68
2022/03/17 15:19:03;;;;;;;16.00;9.20;;;9.40;65.50;;;;;;5077423;28;20235;-68
2022/03/17 15:21:52;;;;;;;13.97;8.97;;;9.50;64.60;;;;;;5078169;28;20225;-68
2022/03/17 15:24:41;;;;;;;14.17;8.50;;;9.50;64.70;;;;;;5063101;28;20223;-67
2022/03/17 15:30:38;;;;;;;12.47;7.73;;;9.30;64.60;;;;;;5062399;28;20237;-68
2022/03/17 15:33:31;;;;;;;16.47;8.73;;;9.30;64.70;;;;;;5080323;28;20219;-68
2022/03/17 15:36:23;;;;;;;13.17;7.97;;;9.30;64.90;;;;;;5074186;28;20308;-68
2022/03/17 15:39:11;;;;;;;12.03;7.77;;;9.10;64.50;;;;;;5078974;28;20229;-69